Terminal Aerodrome Forecast
Issued by NWS

Home | Current Version | Previous Version | Text Only | Print | Product List | Glossary On
Versions: 1 2 3 4 5 6 7 8 9 10 11 12 13 14 15 16 17 18 19
000
FTUS43 KJKL 300500
TAFSJS
TAF
KSJS 300540Z 3006/3106 VRB03KT P6SM SCT090
     FM301000 00000KT 4SM HZ FEW090 SCT250
     FM301300 19004KT P6SM FEW250
     FM302200 20007KT P6SM VCTS BKN050CB=

USA.gov is the U.S. government's official web portal to all federal, state and local government web resources and services.